sensor_id;sensor_type;location;lat;lon;timestamp;P1;durP1;ratioP1;P2;durP2;ratioP2
23258;SDS011;11798;51.528;7.240;2022-08-19T00:00:03;8.63;;;7.20;;
23258;SDS011;11798;51.528;7.240;2022-08-19T00:02:34;8.77;;;7.87;;
23258;SDS011;11798;51.528;7.240;2022-08-19T00:05:00;8.33;;;7.07;;
23258;SDS011;11798;51.528;7.240;2022-08-19T00:07:26;8.47;;;7.77;;
23258;SDS011;11798;51.528;7.240;2022-08-19T00:09:52;8.10;;;7.03;;
23258;SDS011;11798;51.528;7.240;2022-08-19T00:12:18;8.87;;;7.50;;
23258;SDS011;11798;51.528;7.240;2022-08-19T00:14:44;9.07;;;8.17;;
23258;SDS011;11798;51.528;7.240;2022-08-19T00:17:10;8.13;;;7.43;;
23258;SDS011;11798;51.528;7.240;2022-08-19T00:19:36;7.23;;;6.63;;
23258;SDS011;11798;51.528;7.240;2022-08-19T00:22:02;8.50;;;7.77;;
23258;SDS011;11798;51.528;7.240;2022-08-19T00:24:28;7.97;;;7.30;;
23258;SDS011;11798;51.528;7.240;2022-08-19T00:26:54;8.47;;;7.53;;
23258;SDS011;11798;51.528;7.240;2022-08-19T00:29:22;8.57;;;7.77;;
23258;SDS011;11798;51.528;7.240;2022-08-19T00:31:49;10.47;;;8.03;;
23258;SDS011;11798;51.528;7.240;2022-08-19T00:34:18;8.07;;;7.27;;
23258;SDS011;11798;51.528;7.240;2022-08-19T00:36:44;9.97;;;8.13;;
23258;SDS011;11798;51.528;7.240;2022-08-19T00:39:10;9.40;;;8.40;;
23258;SDS011;11798;51.528;7.240;2022-08-19T00:41:37;8.57;;;7.73;;
23258;SDS011;11798;51.528;7.240;2022-08-19T00:44:05;9.70;;;8.57;;
23258;SDS011;11798;51.528;7.240;2022-08-19T00:46:36;11.17;;;7.93;;
23258;SDS011;11798;51.528;7.240;2022-08-19T00:51:51;9.50;;;8.60;;
23258;SDS011;11798;51.528;7.240;2022-08-19T00:54:21;9.53;;;7.87;;
23258;SDS011;11798;51.528;7.240;2022-08-19T00:56:48;9.50;;;8.27;;
23258;SDS011;11798;51.528;7.240;2022-08-19T00:59:15;9.17;;;8.30;;
23258;SDS011;11798;51.528;7.240;2022-08-19T01:01:42;8.87;;;7.97;;
23258;SDS011;11798;51.528;7.240;2022-08-19T01:04:09;8.67;;;7.87;;
23258;SDS011;11798;51.528;7.240;2022-08-19T01:06:37;9.70;;;8.37;;
23258;SDS011;11798;51.528;7.240;2022-08-19T01:09:06;10.07;;;9.10;;
23258;SDS011;11798;51.528;7.240;2022-08-19T01:11:33;11.00;;;8.93;;
23258;SDS011;11798;51.528;7.240;2022-08-19T01:14:00;10.10;;;9.20;;
23258;SDS011;11798;51.528;7.240;2022-08-19T01:16:26;9.47;;;8.63;;
23258;SDS011;11798;51.528;7.240;2022-08-19T01:18:54;9.00;;;8.10;;
23258;SDS011;11798;51.528;7.240;2022-08-19T01:21:22;9.53;;;8.43;;
23258;SDS011;11798;51.528;7.240;2022-08-19T01:23:53;10.10;;;9.10;;
23258;SDS011;11798;51.528;7.240;2022-08-19T01:26:19;10.10;;;9.10;;
23258;SDS011;11798;51.528;7.240;2022-08-19T01:28:47;9.67;;;8.67;;
23258;SDS011;11798;51.528;7.240;2022-08-19T01:31:17;10.00;;;8.80;;
23258;SDS011;11798;51.528;7.240;2022-08-19T01:33:46;9.97;;;9.07;;
23258;SDS011;11798;51.528;7.240;2022-08-19T01:36:14;9.57;;;8.67;;
23258;SDS011;11798;51.528;7.240;2022-08-19T01:38:47;10.57;;;9.50;;
23258;SDS011;11798;51.528;7.240;2022-08-19T01:41:13;9.00;;;8.17;;
23258;SDS011;11798;51.528;7.240;2022-08-19T01:43:39;9.73;;;8.83;;
23258;SDS011;11798;51.528;7.240;2022-08-19T01:46:05;9.20;;;8.37;;
23258;SDS011;11798;51.528;7.240;2022-08-19T01:48:35;11.33;;;10.20;;
23258;SDS011;11798;51.528;7.240;2022-08-19T01:51:04;11.40;;;10.30;;
23258;SDS011;11798;51.528;7.240;2022-08-19T01:53:30;12.27;;;11.17;;
23258;SDS011;11798;51.528;7.240;2022-08-19T01:55:56;13.20;;;11.77;;
23258;SDS011;11798;51.528;7.240;2022-08-19T01:58:24;12.13;;;10.93;;
23258;SDS011;11798;51.528;7.240;2022-08-19T02:00:55;13.10;;;11.53;;
23258;SDS011;11798;51.528;7.240;2022-08-19T02:03:22;12.40;;;11.17;;
23258;SDS011;11798;51.528;7.240;2022-08-19T02:05:48;11.50;;;10.40;;
23258;SDS011;11798;51.528;7.240;2022-08-19T02:08:18;12.87;;;11.30;;
23258;SDS011;11798;51.528;7.240;2022-08-19T02:10:44;12.37;;;10.67;;
23258;SDS011;11798;51.528;7.240;2022-08-19T02:13:10;14.33;;;11.37;;
23258;SDS011;11798;51.528;7.240;2022-08-19T02:15:37;12.73;;;11.53;;
23258;SDS011;11798;51.528;7.240;2022-08-19T02:18:03;12.87;;;11.47;;
23258;SDS011;11798;51.528;7.240;2022-08-19T02:20:29;12.67;;;11.37;;
23258;SDS011;11798;51.528;7.240;2022-08-19T02:22:54;12.83;;;11.40;;
23258;SDS011;11798;51.528;7.240;2022-08-19T02:25:20;13.07;;;11.80;;
23258;SDS011;11798;51.528;7.240;2022-08-19T02:27:46;13.83;;;12.33;;
23258;SDS011;11798;51.528;7.240;2022-08-19T02:30:13;13.57;;;11.17;;
23258;SDS011;11798;51.528;7.240;2022-08-19T02:32:41;11.70;;;10.50;;
23258;SDS011;11798;51.528;7.240;2022-08-19T02:35:07;11.90;;;10.80;;
23258;SDS011;11798;51.528;7.240;2022-08-19T02:37:33;12.70;;;10.83;;
23258;SDS011;11798;51.528;7.240;2022-08-19T02:40:18;13.30;;;11.90;;
23258;SDS011;11798;51.528;7.240;2022-08-19T02:42:43;14.07;;;12.67;;
23258;SDS011;11798;51.528;7.240;2022-08-19T02:45:10;14.10;;;12.80;;
23258;SDS011;11798;51.528;7.240;2022-08-19T02:47:37;14.83;;;13.33;;
23258;SDS011;11798;51.528;7.240;2022-08-19T02:50:03;14.83;;;12.47;;
23258;SDS011;11798;51.528;7.240;2022-08-19T02:52:30;14.13;;;12.63;;
23258;SDS011;11798;51.528;7.240;2022-08-19T02:54:56;15.10;;;13.23;;
23258;SDS011;11798;51.528;7.240;2022-08-19T02:57:22;14.87;;;13.37;;
23258;SDS011;11798;51.528;7.240;2022-08-19T02:59:49;15.20;;;13.60;;
23258;SDS011;11798;51.528;7.240;2022-08-19T03:02:15;16.00;;;14.30;;
23258;SDS011;11798;51.528;7.240;2022-08-19T03:04:41;15.83;;;14.23;;
23258;SDS011;11798;51.528;7.240;2022-08-19T03:07:07;17.43;;;14.90;;
23258;SDS011;11798;51.528;7.240;2022-08-19T03:09:35;15.57;;;13.97;;
23258;SDS011;11798;51.528;7.240;2022-08-19T03:12:03;14.97;;;13.47;;
23258;SDS011;11798;51.528;7.240;2022-08-19T03:14:35;17.20;;;15.40;;
23258;SDS011;11798;51.528;7.240;2022-08-19T03:17:01;17.63;;;14.70;;
23258;SDS011;11798;51.528;7.240;2022-08-19T03:19:28;19.43;;;16.20;;
23258;SDS011;11798;51.528;7.240;2022-08-19T03:21:53;18.80;;;15.80;;
23258;SDS011;11798;51.528;7.240;2022-08-19T03:24:20;19.53;;;17.07;;
23258;SDS011;11798;51.528;7.240;2022-08-19T03:26:51;20.00;;;16.93;;
23258;SDS011;11798;51.528;7.240;2022-08-19T03:29:22;18.30;;;16.40;;
23258;SDS011;11798;51.528;7.240;2022-08-19T03:31:48;19.77;;;16.97;;
23258;SDS011;11798;51.528;7.240;2022-08-19T03:34:21;16.60;;;14.90;;
23258;SDS011;11798;51.528;7.240;2022-08-19T03:36:51;17.43;;;15.67;;
23258;SDS011;11798;51.528;7.240;2022-08-19T03:39:19;15.97;;;14.20;;
23258;SDS011;11798;51.528;7.240;2022-08-19T03:41:45;17.93;;;15.57;;
23258;SDS011;11798;51.528;7.240;2022-08-19T03:44:14;15.63;;;13.93;;
23258;SDS011;11798;51.528;7.240;2022-08-19T03:46:46;17.60;;;15.37;;
23258;SDS011;11798;51.528;7.240;2022-08-19T03:49:30;16.70;;;14.83;;
23258;SDS011;11798;51.528;7.240;2022-08-19T03:51:58;16.40;;;14.60;;
23258;SDS011;11798;51.528;7.240;2022-08-19T03:54:27;17.73;;;15.93;;
23258;SDS011;11798;51.528;7.240;2022-08-19T03:56:54;20.03;;;17.47;;
23258;SDS011;11798;51.528;7.240;2022-08-19T03:59:22;20.87;;;17.87;;
23258;SDS011;11798;51.528;7.240;2022-08-19T04:01:51;17.97;;;16.07;;
23258;SDS011;11798;51.528;7.240;2022-08-19T04:04:19;18.00;;;16.10;;
23258;SDS011;11798;51.528;7.240;2022-08-19T04:06:44;22.17;;;17.80;;
23258;SDS011;11798;51.528;7.240;2022-08-19T04:09:12;20.00;;;17.30;;
23258;SDS011;11798;51.528;7.240;2022-08-19T04:11:44;20.70;;;17.70;;
23258;SDS011;11798;51.528;7.240;2022-08-19T04:14:13;19.83;;;16.93;;
23258;SDS011;11798;51.528;7.240;2022-08-19T04:16:41;20.70;;;18.47;;
23258;SDS011;11798;51.528;7.240;2022-08-19T04:19:09;22.27;;;18.53;;
23258;SDS011;11798;51.528;7.240;2022-08-19T04:21:35;22.67;;;19.60;;
23258;SDS011;11798;51.528;7.240;2022-08-19T04:24:01;22.63;;;19.03;;
23258;SDS011;11798;51.528;7.240;2022-08-19T04:26:28;24.87;;;20.30;;
23258;SDS011;11798;51.528;7.240;2022-08-19T04:29:00;26.73;;;20.37;;
23258;SDS011;11798;51.528;7.240;2022-08-19T04:31:28;25.87;;;22.17;;
23258;SDS011;11798;51.528;7.240;2022-08-19T04:33:56;29.00;;;22.93;;
23258;SDS011;11798;51.528;7.240;2022-08-19T04:36:25;28.93;;;25.03;;
23258;SDS011;11798;51.528;7.240;2022-08-19T04:38:53;28.47;;;23.50;;
23258;SDS011;11798;51.528;7.240;2022-08-19T04:41:20;28.73;;;24.33;;
23258;SDS011;11798;51.528;7.240;2022-08-19T04:44:05;31.27;;;25.07;;
23258;SDS011;11798;51.528;7.240;2022-08-19T04:46:32;34.47;;;26.73;;
23258;SDS011;11798;51.528;7.240;2022-08-19T04:48:58;37.23;;;29.77;;
23258;SDS011;11798;51.528;7.240;2022-08-19T04:51:25;32.20;;;26.47;;
23258;SDS011;11798;51.528;7.240;2022-08-19T04:53:51;35.10;;;26.67;;
23258;SDS011;11798;51.528;7.240;2022-08-19T04:56:18;32.87;;;26.13;;
23258;SDS011;11798;51.528;7.240;2022-08-19T04:58:46;33.33;;;25.87;;
23258;SDS011;11798;51.528;7.240;2022-08-19T05:01:13;34.77;;;26.70;;
23258;SDS011;11798;51.528;7.240;2022-08-19T05:03:42;30.80;;;26.27;;
23258;SDS011;11798;51.528;7.240;2022-08-19T05:06:09;29.20;;;24.63;;
23258;SDS011;11798;51.528;7.240;2022-08-19T05:08:38;30.83;;;24.30;;
23258;SDS011;11798;51.528;7.240;2022-08-19T05:11:12;29.83;;;24.33;;
23258;SDS011;11798;51.528;7.240;2022-08-19T05:13:43;27.70;;;23.13;;
23258;SDS011;11798;51.528;7.240;2022-08-19T05:16:10;26.93;;;22.70;;
23258;SDS011;11798;51.528;7.240;2022-08-19T05:18:38;33.87;;;24.70;;
23258;SDS011;11798;51.528;7.240;2022-08-19T05:21:24;27.67;;;24.33;;
23258;SDS011;11798;51.528;7.240;2022-08-19T05:24:09;25.93;;;22.50;;
23258;SDS011;11798;51.528;7.240;2022-08-19T05:26:36;28.03;;;21.77;;
23258;SDS011;11798;51.528;7.240;2022-08-19T05:29:03;27.43;;;22.50;;
23258;SDS011;11798;51.528;7.240;2022-08-19T05:31:30;27.03;;;22.43;;
23258;SDS011;11798;51.528;7.240;2022-08-19T05:33:56;27.50;;;22.13;;
23258;SDS011;11798;51.528;7.240;2022-08-19T05:36:23;23.33;;;20.40;;
23258;SDS011;11798;51.528;7.240;2022-08-19T05:38:53;27.37;;;21.70;;
23258;SDS011;11798;51.528;7.240;2022-08-19T05:41:20;27.10;;;22.43;;
23258;SDS011;11798;51.528;7.240;2022-08-19T05:43:54;26.10;;;21.37;;
23258;SDS011;11798;51.528;7.240;2022-08-19T05:46:20;26.03;;;22.17;;
23258;SDS011;11798;51.528;7.240;2022-08-19T05:48:47;26.03;;;23.23;;
23258;SDS011;11798;51.528;7.240;2022-08-19T05:51:13;23.90;;;21.40;;
23258;SDS011;11798;51.528;7.240;2022-08-19T05:53:41;25.93;;;23.17;;
23258;SDS011;11798;51.528;7.240;2022-08-19T05:56:11;27.97;;;23.73;;
23258;SDS011;11798;51.528;7.240;2022-08-19T05:58:40;26.17;;;22.20;;
23258;SDS011;11798;51.528;7.240;2022-08-19T06:01:11;24.27;;;21.67;;
23258;SDS011;11798;51.528;7.240;2022-08-19T06:03:39;25.80;;;21.60;;
23258;SDS011;11798;51.528;7.240;2022-08-19T06:06:05;23.70;;;20.60;;
23258;SDS011;11798;51.528;7.240;2022-08-19T06:08:34;24.83;;;21.10;;
23258;SDS011;11798;51.528;7.240;2022-08-19T06:13:49;23.93;;;20.83;;
23258;SDS011;11798;51.528;7.240;2022-08-19T06:16:18;22.63;;;20.30;;
23258;SDS011;11798;51.528;7.240;2022-08-19T06:18:45;22.87;;;19.57;;
23258;SDS011;11798;51.528;7.240;2022-08-19T06:21:11;24.97;;;21.23;;
23258;SDS011;11798;51.528;7.240;2022-08-19T06:23:37;28.50;;;23.23;;
23258;SDS011;11798;51.528;7.240;2022-08-19T06:26:04;25.03;;;22.33;;
23258;SDS011;11798;51.528;7.240;2022-08-19T06:28:30;26.43;;;22.03;;
23258;SDS011;11798;51.528;7.240;2022-08-19T06:30:57;25.30;;;21.43;;
23258;SDS011;11798;51.528;7.240;2022-08-19T06:33:23;30.40;;;26.00;;
23258;SDS011;11798;51.528;7.240;2022-08-19T06:35:49;30.00;;;24.27;;
23258;SDS011;11798;51.528;7.240;2022-08-19T06:38:14;28.57;;;24.03;;
23258;SDS011;11798;51.528;7.240;2022-08-19T06:40:40;29.87;;;24.87;;
23258;SDS011;11798;51.528;7.240;2022-08-19T06:43:06;29.20;;;24.90;;
23258;SDS011;11798;51.528;7.240;2022-08-19T06:45:31;27.67;;;24.73;;
23258;SDS011;11798;51.528;7.240;2022-08-19T06:47:57;30.23;;;23.93;;
23258;SDS011;11798;51.528;7.240;2022-08-19T06:50:23;28.87;;;24.80;;
23258;SDS011;11798;51.528;7.240;2022-08-19T06:52:48;27.20;;;24.23;;
23258;SDS011;11798;51.528;7.240;2022-08-19T06:55:14;25.70;;;22.40;;
23258;SDS011;11798;51.528;7.240;2022-08-19T06:57:41;26.07;;;23.23;;
23258;SDS011;11798;51.528;7.240;2022-08-19T07:00:07;26.30;;;22.43;;
23258;SDS011;11798;51.528;7.240;2022-08-19T07:02:38;25.27;;;21.70;;
23258;SDS011;11798;51.528;7.240;2022-08-19T07:05:05;24.53;;;21.73;;
23258;SDS011;11798;51.528;7.240;2022-08-19T07:07:31;27.33;;;22.30;;
23258;SDS011;11798;51.528;7.240;2022-08-19T07:09:56;28.07;;;23.77;;
23258;SDS011;11798;51.528;7.240;2022-08-19T07:12:22;26.13;;;22.80;;
23258;SDS011;11798;51.528;7.240;2022-08-19T07:14:47;26.17;;;22.53;;
23258;SDS011;11798;51.528;7.240;2022-08-19T07:17:14;25.40;;;20.83;;
23258;SDS011;11798;51.528;7.240;2022-08-19T07:19:40;27.70;;;20.73;;
23258;SDS011;11798;51.528;7.240;2022-08-19T07:22:08;26.77;;;20.93;;
23258;SDS011;11798;51.528;7.240;2022-08-19T07:24:34;29.73;;;23.07;;
23258;SDS011;11798;51.528;7.240;2022-08-19T07:27:01;27.43;;;21.60;;
23258;SDS011;11798;51.528;7.240;2022-08-19T07:29:30;29.60;;;24.30;;
23258;SDS011;11798;51.528;7.240;2022-08-19T07:31:59;26.43;;;23.33;;
23258;SDS011;11798;51.528;7.240;2022-08-19T07:34:26;24.70;;;22.00;;
23258;SDS011;11798;51.528;7.240;2022-08-19T07:36:54;29.57;;;22.30;;
23258;SDS011;11798;51.528;7.240;2022-08-19T07:39:27;24.53;;;21.63;;
23258;SDS011;11798;51.528;7.240;2022-08-19T07:41:55;26.23;;;20.90;;
23258;SDS011;11798;51.528;7.240;2022-08-19T07:44:22;24.67;;;19.77;;
23258;SDS011;11798;51.528;7.240;2022-08-19T07:46:52;23.63;;;19.47;;
23258;SDS011;11798;51.528;7.240;2022-08-19T07:49:20;26.80;;;22.73;;
23258;SDS011;11798;51.528;7.240;2022-08-19T07:51:49;26.90;;;21.00;;
23258;SDS011;11798;51.528;7.240;2022-08-19T07:54:21;24.00;;;19.20;;
23258;SDS011;11798;51.528;7.240;2022-08-19T07:56:48;26.63;;;21.00;;
23258;SDS011;11798;51.528;7.240;2022-08-19T07:59:15;24.63;;;20.98;;
23258;SDS011;11798;51.528;7.240;2022-08-19T08:01:42;24.40;;;21.17;;
23258;SDS011;11798;51.528;7.240;2022-08-19T08:04:08;24.77;;;20.93;;
23258;SDS011;11798;51.528;7.240;2022-08-19T08:06:52;29.00;;;22.07;;
23258;SDS011;11798;51.528;7.240;2022-08-19T08:09:38;24.70;;;21.00;;
23258;SDS011;11798;51.528;7.240;2022-08-19T08:12:06;27.07;;;21.43;;
23258;SDS011;11798;51.528;7.240;2022-08-19T08:14:49;26.02;;;20.80;;
23258;SDS011;11798;51.528;7.240;2022-08-19T08:17:18;27.38;;;22.23;;
23258;SDS011;11798;51.528;7.240;2022-08-19T08:19:48;27.02;;;22.05;;
23258;SDS011;11798;51.528;7.240;2022-08-19T08:22:15;27.10;;;22.88;;
23258;SDS011;11798;51.528;7.240;2022-08-19T08:25:05;29.58;;;22.17;;
23258;SDS011;11798;51.528;7.240;2022-08-19T08:27:38;25.58;;;22.77;;
23258;SDS011;11798;51.528;7.240;2022-08-19T08:30:08;30.52;;;25.33;;
23258;SDS011;11798;51.528;7.240;2022-08-19T08:32:39;29.67;;;26.35;;
23258;SDS011;11798;51.528;7.240;2022-08-19T08:35:05;29.52;;;25.35;;
23258;SDS011;11798;51.528;7.240;2022-08-19T08:37:32;32.00;;;26.00;;
23258;SDS011;11798;51.528;7.240;2022-08-19T08:39:58;29.40;;;24.55;;
23258;SDS011;11798;51.528;7.240;2022-08-19T08:42:33;28.55;;;25.23;;
23258;SDS011;11798;51.528;7.240;2022-08-19T08:45:10;35.03;;;26.60;;
23258;SDS011;11798;51.528;7.240;2022-08-19T08:47:41;32.58;;;28.23;;
23258;SDS011;11798;51.528;7.240;2022-08-19T08:50:23;32.25;;;27.10;;
23258;SDS011;11798;51.528;7.240;2022-08-19T08:52:55;31.30;;;27.00;;
23258;SDS011;11798;51.528;7.240;2022-08-19T08:55:26;29.67;;;26.17;;
23258;SDS011;11798;51.528;7.240;2022-08-19T08:57:55;29.25;;;26.15;;
23258;SDS011;11798;51.528;7.240;2022-08-19T09:02:58;33.60;;;28.25;;
23258;SDS011;11798;51.528;7.240;2022-08-19T09:17:06;31.45;;;27.92;;
23258;SDS011;11798;51.528;7.240;2022-08-19T09:19:34;36.20;;;32.42;;
23258;SDS011;11798;51.528;7.240;2022-08-19T09:22:34;35.60;;;30.52;;
23258;SDS011;11798;51.528;7.240;2022-08-19T09:25:03;32.30;;;28.98;;
23258;SDS011;11798;51.528;7.240;2022-08-19T09:27:30;37.00;;;31.65;;
23258;SDS011;11798;51.528;7.240;2022-08-19T09:29:56;37.33;;;33.53;;
23258;SDS011;11798;51.528;7.240;2022-08-19T09:32:23;23.80;;;21.30;;
23258;SDS011;11798;51.528;7.240;2022-08-19T09:34:49;22.35;;;19.85;;
23258;SDS011;11798;51.528;7.240;2022-08-19T09:37:14;26.17;;;23.42;;
23258;SDS011;11798;51.528;7.240;2022-08-19T09:39:40;24.17;;;21.50;;
23258;SDS011;11798;51.528;7.240;2022-08-19T09:42:07;22.60;;;20.40;;
23258;SDS011;11798;51.528;7.240;2022-08-19T09:44:39;20.40;;;18.25;;
23258;SDS011;11798;51.528;7.240;2022-08-19T09:47:05;21.88;;;18.77;;
23258;SDS011;11798;51.528;7.240;2022-08-19T09:49:32;21.73;;;19.25;;
23258;SDS011;11798;51.528;7.240;2022-08-19T09:51:58;20.48;;;18.45;;
23258;SDS011;11798;51.528;7.240;2022-08-19T09:54:24;19.77;;;17.77;;
23258;SDS011;11798;51.528;7.240;2022-08-19T09:56:50;23.17;;;20.98;;
23258;SDS011;11798;51.528;7.240;2022-08-19T09:59:17;22.95;;;18.58;;
23258;SDS011;11798;51.528;7.240;2022-08-19T10:01:43;20.33;;;18.30;;
23258;SDS011;11798;51.528;7.240;2022-08-19T10:04:08;26.05;;;18.10;;
23258;SDS011;11798;51.528;7.240;2022-08-19T10:06:35;24.63;;;19.60;;
23258;SDS011;11798;51.528;7.240;2022-08-19T10:09:03;24.83;;;19.35;;
23258;SDS011;11798;51.528;7.240;2022-08-19T10:11:31;20.15;;;17.90;;
23258;SDS011;11798;51.528;7.240;2022-08-19T10:13:57;22.63;;;20.27;;
23258;SDS011;11798;51.528;7.240;2022-08-19T10:16:24;18.90;;;16.90;;
23258;SDS011;11798;51.528;7.240;2022-08-19T10:18:51;25.75;;;19.42;;
23258;SDS011;11798;51.528;7.240;2022-08-19T10:21:19;19.23;;;17.33;;
23258;SDS011;11798;51.528;7.240;2022-08-19T10:23:49;21.33;;;18.02;;
23258;SDS011;11798;51.528;7.240;2022-08-19T10:26:18;22.10;;;18.95;;
23258;SDS011;11798;51.528;7.240;2022-08-19T10:28:46;19.92;;;17.40;;
23258;SDS011;11798;51.528;7.240;2022-08-19T10:31:13;25.65;;;20.13;;
23258;SDS011;11798;51.528;7.240;2022-08-19T10:33:42;20.05;;;18.15;;
23258;SDS011;11798;51.528;7.240;2022-08-19T10:36:10;19.58;;;17.58;;
23258;SDS011;11798;51.528;7.240;2022-08-19T10:38:42;19.52;;;17.42;;
23258;SDS011;11798;51.528;7.240;2022-08-19T10:41:17;19.42;;;17.33;;
23258;SDS011;11798;51.528;7.240;2022-08-19T10:43:44;18.25;;;16.55;;
23258;SDS011;11798;51.528;7.240;2022-08-19T10:46:14;19.17;;;17.38;;
23258;SDS011;11798;51.528;7.240;2022-08-19T10:48:41;17.63;;;15.88;;
23258;SDS011;11798;51.528;7.240;2022-08-19T10:51:07;15.45;;;13.80;;
23258;SDS011;11798;51.528;7.240;2022-08-19T10:53:52;17.23;;;15.52;;
23258;SDS011;11798;51.528;7.240;2022-08-19T10:56:18;14.75;;;13.32;;
23258;SDS011;11798;51.528;7.240;2022-08-19T10:59:02;15.32;;;13.20;;
23258;SDS011;11798;51.528;7.240;2022-08-19T11:01:29;17.50;;;15.65;;
23258;SDS011;11798;51.528;7.240;2022-08-19T11:03:57;16.15;;;14.60;;
23258;SDS011;11798;51.528;7.240;2022-08-19T11:06:22;16.17;;;14.57;;
23258;SDS011;11798;51.528;7.240;2022-08-19T11:08:50;19.65;;;16.45;;
23258;SDS011;11798;51.528;7.240;2022-08-19T11:11:16;17.85;;;16.15;;
23258;SDS011;11798;51.528;7.240;2022-08-19T11:13:42;18.33;;;14.35;;
23258;SDS011;11798;51.528;7.240;2022-08-19T11:16:15;22.70;;;17.23;;
23258;SDS011;11798;51.528;7.240;2022-08-19T11:18:44;18.75;;;16.80;;
23258;SDS011;11798;51.528;7.240;2022-08-19T11:21:13;19.65;;;17.75;;
23258;SDS011;11798;51.528;7.240;2022-08-19T11:23:45;19.10;;;17.13;;
23258;SDS011;11798;51.528;7.240;2022-08-19T11:26:12;17.90;;;16.20;;
23258;SDS011;11798;51.528;7.240;2022-08-19T11:28:38;21.33;;;19.30;;
23258;SDS011;11798;51.528;7.240;2022-08-19T11:31:09;20.83;;;18.92;;
23258;SDS011;11798;51.528;7.240;2022-08-19T11:33:42;25.65;;;23.00;;
23258;SDS011;11798;51.528;7.240;2022-08-19T11:36:08;24.02;;;21.67;;
23258;SDS011;11798;51.528;7.240;2022-08-19T11:38:34;27.55;;;24.65;;
23258;SDS011;11798;51.528;7.240;2022-08-19T11:41:03;26.02;;;23.52;;
23258;SDS011;11798;51.528;7.240;2022-08-19T11:43:32;23.95;;;21.73;;
23258;SDS011;11798;51.528;7.240;2022-08-19T11:45:58;27.13;;;24.67;;
23258;SDS011;11798;51.528;7.240;2022-08-19T11:48:24;26.23;;;23.65;;
23258;SDS011;11798;51.528;7.240;2022-08-19T11:50:51;26.70;;;24.08;;
23258;SDS011;11798;51.528;7.240;2022-08-19T11:53:18;23.70;;;21.35;;
23258;SDS011;11798;51.528;7.240;2022-08-19T11:55:45;21.90;;;19.95;;
23258;SDS011;11798;51.528;7.240;2022-08-19T11:58:12;22.70;;;20.45;;
23258;SDS011;11798;51.528;7.240;2022-08-19T12:00:39;22.67;;;20.48;;
23258;SDS011;11798;51.528;7.240;2022-08-19T12:03:05;26.58;;;23.77;;
23258;SDS011;11798;51.528;7.240;2022-08-19T12:05:31;23.27;;;20.90;;
23258;SDS011;11798;51.528;7.240;2022-08-19T12:07:56;24.30;;;21.52;;
23258;SDS011;11798;51.528;7.240;2022-08-19T12:10:22;24.45;;;21.90;;
23258;SDS011;11798;51.528;7.240;2022-08-19T12:12:48;23.08;;;20.88;;
23258;SDS011;11798;51.528;7.240;2022-08-19T12:15:14;25.40;;;23.00;;
23258;SDS011;11798;51.528;7.240;2022-08-19T12:17:40;26.98;;;24.17;;
23258;SDS011;11798;51.528;7.240;2022-08-19T12:20:08;21.88;;;19.67;;
23258;SDS011;11798;51.528;7.240;2022-08-19T12:22:36;23.83;;;21.42;;
23258;SDS011;11798;51.528;7.240;2022-08-19T12:25:02;23.98;;;21.63;;
23258;SDS011;11798;51.528;7.240;2022-08-19T12:27:28;21.58;;;19.48;;
23258;SDS011;11798;51.528;7.240;2022-08-19T12:29:54;20.73;;;18.73;;
23258;SDS011;11798;51.528;7.240;2022-08-19T12:32:19;23.00;;;20.65;;
23258;SDS011;11798;51.528;7.240;2022-08-19T12:34:46;21.40;;;19.27;;
23258;SDS011;11798;51.528;7.240;2022-08-19T12:37:12;18.63;;;16.63;;
23258;SDS011;11798;51.528;7.240;2022-08-19T12:39:39;15.95;;;14.30;;
23258;SDS011;11798;51.528;7.240;2022-08-19T12:42:06;16.15;;;14.55;;
23258;SDS011;11798;51.528;7.240;2022-08-19T12:44:34;15.95;;;14.30;;
23258;SDS011;11798;51.528;7.240;2022-08-19T12:47:00;14.98;;;13.68;;
23258;SDS011;11798;51.528;7.240;2022-08-19T12:49:28;14.80;;;13.30;;
23258;SDS011;11798;51.528;7.240;2022-08-19T12:51:54;17.27;;;15.73;;
23258;SDS011;11798;51.528;7.240;2022-08-19T12:54:20;17.40;;;15.80;;
23258;SDS011;11798;51.528;7.240;2022-08-19T12:56:45;16.55;;;15.07;;
23258;SDS011;11798;51.528;7.240;2022-08-19T12:59:11;15.13;;;13.73;;
23258;SDS011;11798;51.528;7.240;2022-08-19T13:01:37;12.52;;;11.43;;
23258;SDS011;11798;51.528;7.240;2022-08-19T13:04:03;13.40;;;12.13;;
23258;SDS011;11798;51.528;7.240;2022-08-19T13:06:29;13.30;;;12.05;;
23258;SDS011;11798;51.528;7.240;2022-08-19T13:08:55;12.65;;;11.23;;
23258;SDS011;11798;51.528;7.240;2022-08-19T13:11:21;12.30;;;11.20;;
23258;SDS011;11798;51.528;7.240;2022-08-19T13:13:49;13.18;;;11.73;;
23258;SDS011;11798;51.528;7.240;2022-08-19T13:16:16;14.88;;;13.38;;
23258;SDS011;11798;51.528;7.240;2022-08-19T13:18:44;12.77;;;11.48;;
23258;SDS011;11798;51.528;7.240;2022-08-19T13:21:12;12.02;;;10.88;;
23258;SDS011;11798;51.528;7.240;2022-08-19T13:23:38;13.77;;;11.73;;
23258;SDS011;11798;51.528;7.240;2022-08-19T13:26:05;12.90;;;10.88;;
23258;SDS011;11798;51.528;7.240;2022-08-19T13:28:33;11.95;;;10.48;;
23258;SDS011;11798;51.528;7.240;2022-08-19T13:31:19;12.35;;;11.10;;
23258;SDS011;11798;51.528;7.240;2022-08-19T13:34:05;12.50;;;10.98;;
23258;SDS011;11798;51.528;7.240;2022-08-19T13:36:34;12.38;;;11.20;;
23258;SDS011;11798;51.528;7.240;2022-08-19T13:39:01;13.25;;;11.90;;
23258;SDS011;11798;51.528;7.240;2022-08-19T13:41:27;12.32;;;11.18;;
23258;SDS011;11798;51.528;7.240;2022-08-19T13:43:53;11.43;;;10.43;;
23258;SDS011;11798;51.528;7.240;2022-08-19T13:46:19;11.13;;;10.05;;
23258;SDS011;11798;51.528;7.240;2022-08-19T13:48:45;11.88;;;10.73;;
23258;SDS011;11798;51.528;7.240;2022-08-19T13:51:13;11.90;;;10.02;;
23258;SDS011;11798;51.528;7.240;2022-08-19T13:53:41;11.32;;;10.32;;
23258;SDS011;11798;51.528;7.240;2022-08-19T13:56:09;11.50;;;10.32;;
23258;SDS011;11798;51.528;7.240;2022-08-19T13:58:36;10.23;;;9.32;;
23258;SDS011;11798;51.528;7.240;2022-08-19T14:01:03;10.82;;;9.57;;
23258;SDS011;11798;51.528;7.240;2022-08-19T14:03:30;10.27;;;8.60;;
23258;SDS011;11798;51.528;7.240;2022-08-19T14:05:56;10.75;;;9.15;;
23258;SDS011;11798;51.528;7.240;2022-08-19T14:08:22;11.18;;;8.18;;
23258;SDS011;11798;51.528;7.240;2022-08-19T14:10:48;19.20;;;9.77;;
23258;SDS011;11798;51.528;7.240;2022-08-19T14:13:16;10.00;;;7.95;;
23258;SDS011;11798;51.528;7.240;2022-08-19T14:15:43;15.32;;;8.27;;
23258;SDS011;11798;51.528;7.240;2022-08-19T14:18:10;9.15;;;8.25;;
23258;SDS011;11798;51.528;7.240;2022-08-19T14:20:36;9.88;;;7.75;;
23258;SDS011;11798;51.528;7.240;2022-08-19T14:23:02;8.98;;;7.65;;
23258;SDS011;11798;51.528;7.240;2022-08-19T14:25:28;8.32;;;7.30;;
23258;SDS011;11798;51.528;7.240;2022-08-19T14:27:55;19.10;;;7.57;;
23258;SDS011;11798;51.528;7.240;2022-08-19T14:30:25;26.40;;;8.77;;
23258;SDS011;11798;51.528;7.240;2022-08-19T14:32:56;10.18;;;7.85;;
23258;SDS011;11798;51.528;7.240;2022-08-19T14:35:23;7.55;;;6.82;;
23258;SDS011;11798;51.528;7.240;2022-08-19T14:37:49;7.43;;;6.70;;
23258;SDS011;11798;51.528;7.240;2022-08-19T14:40:20;9.45;;;6.35;;
23258;SDS011;11798;51.528;7.240;2022-08-19T14:43:01;8.02;;;6.72;;
23258;SDS011;11798;51.528;7.240;2022-08-19T14:45:32;8.02;;;6.90;;
23258;SDS011;11798;51.528;7.240;2022-08-19T14:48:00;8.45;;;7.55;;
23258;SDS011;11798;51.528;7.240;2022-08-19T14:50:25;8.18;;;7.00;;